sensor_id;sensor_type;location;lat;lon;timestamp;P1;durP1;ratioP1;P2;durP2;ratioP2
24301;SDS011;12421;49.732;20.078;2023-04-24T00:03:49;11.40;;;8.70;;
24301;SDS011;12421;49.732;20.078;2023-04-24T00:13:53;12.20;;;8.70;;
24301;SDS011;12421;49.732;20.078;2023-04-24T00:23:56;12.00;;;8.10;;
24301;SDS011;12421;49.732;20.078;2023-04-24T00:33:59;10.90;;;8.30;;
24301;SDS011;12421;49.732;20.078;2023-04-24T00:44:03;15.80;;;9.20;;
24301;SDS011;12421;49.732;20.078;2023-04-24T00:54:06;13.60;;;9.20;;
24301;SDS011;12421;49.732;20.078;2023-04-24T01:04:10;13.80;;;9.50;;
24301;SDS011;12421;49.732;20.078;2023-04-24T01:14:14;13.40;;;8.30;;
24301;SDS011;12421;49.732;20.078;2023-04-24T01:24:17;15.70;;;9.30;;
24301;SDS011;12421;49.732;20.078;2023-04-24T01:34:22;11.50;;;8.30;;
24301;SDS011;12421;49.732;20.078;2023-04-24T01:44:25;13.90;;;8.70;;
24301;SDS011;12421;49.732;20.078;2023-04-24T01:54:28;9.70;;;7.80;;
24301;SDS011;12421;49.732;20.078;2023-04-24T02:04:32;13.70;;;8.50;;
24301;SDS011;12421;49.732;20.078;2023-04-24T02:14:35;10.90;;;7.50;;
24301;SDS011;12421;49.732;20.078;2023-04-24T02:24:39;9.80;;;7.70;;
24301;SDS011;12421;49.732;20.078;2023-04-24T02:34:42;11.90;;;7.70;;
24301;SDS011;12421;49.732;20.078;2023-04-24T02:44:45;11.90;;;9.00;;
24301;SDS011;12421;49.732;20.078;2023-04-24T02:54:48;13.50;;;9.00;;
24301;SDS011;12421;49.732;20.078;2023-04-24T03:04:52;14.20;;;8.00;;
24301;SDS011;12421;49.732;20.078;2023-04-24T03:14:55;11.80;;;9.10;;
24301;SDS011;12421;49.732;20.078;2023-04-24T03:24:59;12.10;;;8.10;;
24301;SDS011;12421;49.732;20.078;2023-04-24T03:35:02;11.70;;;9.20;;
24301;SDS011;12421;49.732;20.078;2023-04-24T03:45:07;13.40;;;7.50;;
24301;SDS011;12421;49.732;20.078;2023-04-24T03:55:12;18.40;;;9.60;;
24301;SDS011;12421;49.732;20.078;2023-04-24T04:15:23;13.50;;;9.40;;
24301;SDS011;12421;49.732;20.078;2023-04-24T04:25:27;18.70;;;11.20;;
24301;SDS011;12421;49.732;20.078;2023-04-24T04:35:31;21.00;;;11.00;;
24301;SDS011;12421;49.732;20.078;2023-04-24T04:45:34;16.70;;;11.00;;
24301;SDS011;12421;49.732;20.078;2023-04-24T04:55:53;15.20;;;9.20;;
24301;SDS011;12421;49.732;20.078;2023-04-24T05:06:02;15.00;;;10.20;;
24301;SDS011;12421;49.732;20.078;2023-04-24T05:16:08;13.40;;;9.30;;
24301;SDS011;12421;49.732;20.078;2023-04-24T05:26:11;11.10;;;8.50;;
24301;SDS011;12421;49.732;20.078;2023-04-24T05:36:16;12.90;;;8.30;;
24301;SDS011;12421;49.732;20.078;2023-04-24T05:46:19;11.60;;;7.10;;
24301;SDS011;12421;49.732;20.078;2023-04-24T05:56:23;8.40;;;6.90;;
24301;SDS011;12421;49.732;20.078;2023-04-24T06:06:27;10.50;;;6.50;;
24301;SDS011;12421;49.732;20.078;2023-04-24T06:16:32;9.80;;;6.90;;
24301;SDS011;12421;49.732;20.078;2023-04-24T06:26:40;8.60;;;6.50;;
24301;SDS011;12421;49.732;20.078;2023-04-24T06:36:44;9.20;;;6.30;;
24301;SDS011;12421;49.732;20.078;2023-04-24T06:46:47;7.30;;;5.10;;
24301;SDS011;12421;49.732;20.078;2023-04-24T06:56:50;9.40;;;5.10;;
24301;SDS011;12421;49.732;20.078;2023-04-24T07:06:55;12.10;;;6.50;;
24301;SDS011;12421;49.732;20.078;2023-04-24T07:16:58;9.20;;;5.60;;
24301;SDS011;12421;49.732;20.078;2023-04-24T07:27:01;6.60;;;3.90;;
24301;SDS011;12421;49.732;20.078;2023-04-24T07:37:06;5.40;;;4.00;;
24301;SDS011;12421;49.732;20.078;2023-04-24T07:47:09;3.60;;;2.80;;
24301;SDS011;12421;49.732;20.078;2023-04-24T07:57:16;4.60;;;2.90;;
24301;SDS011;12421;49.732;20.078;2023-04-24T08:07:19;4.30;;;2.80;;
24301;SDS011;12421;49.732;20.078;2023-04-24T08:27:39;4.20;;;2.60;;
24301;SDS011;12421;49.732;20.078;2023-04-24T08:37:42;4.20;;;2.60;;
24301;SDS011;12421;49.732;20.078;2023-04-24T08:47:45;3.70;;;2.60;;
24301;SDS011;12421;49.732;20.078;2023-04-24T08:57:51;4.50;;;2.50;;
24301;SDS011;12421;49.732;20.078;2023-04-24T09:07:56;4.20;;;2.30;;
24301;SDS011;12421;49.732;20.078;2023-04-24T09:17:59;4.50;;;2.60;;
24301;SDS011;12421;49.732;20.078;2023-04-24T09:28:04;3.90;;;2.40;;
24301;SDS011;12421;49.732;20.078;2023-04-24T09:38:09;4.60;;;2.60;;
24301;SDS011;12421;49.732;20.078;2023-04-24T09:48:13;4.10;;;2.60;;
24301;SDS011;12421;49.732;20.078;2023-04-24T09:58:16;4.10;;;2.50;;
24301;SDS011;12421;49.732;20.078;2023-04-24T10:08:22;6.30;;;2.80;;
24301;SDS011;12421;49.732;20.078;2023-04-24T10:18:26;5.10;;;3.00;;
24301;SDS011;12421;49.732;20.078;2023-04-24T10:28:30;5.50;;;2.70;;
24301;SDS011;12421;49.732;20.078;2023-04-24T10:38:34;5.60;;;3.30;;
24301;SDS011;12421;49.732;20.078;2023-04-24T10:48:41;3.60;;;2.60;;
24301;SDS011;12421;49.732;20.078;2023-04-24T10:58:50;4.70;;;2.70;;
24301;SDS011;12421;49.732;20.078;2023-04-24T11:08:58;4.30;;;2.70;;
24301;SDS011;12421;49.732;20.078;2023-04-24T11:30:08;6.00;;;2.80;;
24301;SDS011;12421;49.732;20.078;2023-04-24T12:01:47;8.50;;;4.40;;
24301;SDS011;12421;49.732;20.078;2023-04-24T12:11:52;7.10;;;4.50;;
24301;SDS011;12421;49.732;20.078;2023-04-24T12:22:03;5.00;;;3.50;;
24301;SDS011;12421;49.732;20.078;2023-04-24T12:32:19;10.10;;;5.00;;
24301;SDS011;12421;49.732;20.078;2023-04-24T12:42:29;6.20;;;3.70;;
24301;SDS011;12421;49.732;20.078;2023-04-24T12:52:34;5.30;;;4.20;;
24301;SDS011;12421;49.732;20.078;2023-04-24T13:02:37;9.40;;;3.70;;
24301;SDS011;12421;49.732;20.078;2023-04-24T13:12:41;5.40;;;3.20;;
24301;SDS011;12421;49.732;20.078;2023-04-24T13:32:51;6.90;;;4.50;;
24301;SDS011;12421;49.732;20.078;2023-04-24T13:42:55;3.20;;;2.20;;
24301;SDS011;12421;49.732;20.078;2023-04-24T13:52:58;3.30;;;2.20;;
24301;SDS011;12421;49.732;20.078;2023-04-24T14:03:05;6.80;;;2.20;;
24301;SDS011;12421;49.732;20.078;2023-04-24T14:13:08;3.50;;;2.10;;
24301;SDS011;12421;49.732;20.078;2023-04-24T14:23:12;4.40;;;2.50;;
24301;SDS011;12421;49.732;20.078;2023-04-24T14:33:16;4.20;;;2.40;;
24301;SDS011;12421;49.732;20.078;2023-04-24T14:43:20;4.60;;;3.50;;
24301;SDS011;12421;49.732;20.078;2023-04-24T14:53:24;5.30;;;3.80;;
24301;SDS011;12421;49.732;20.078;2023-04-24T15:03:28;6.80;;;3.80;;
24301;SDS011;12421;49.732;20.078;2023-04-24T15:13:32;4.70;;;3.50;;
24301;SDS011;12421;49.732;20.078;2023-04-24T15:23:36;4.90;;;3.70;;
24301;SDS011;12421;49.732;20.078;2023-04-24T15:33:39;7.90;;;5.60;;
24301;SDS011;12421;49.732;20.078;2023-04-24T15:43:42;8.20;;;4.70;;
24301;SDS011;12421;49.732;20.078;2023-04-24T15:53:46;4.50;;;3.40;;
24301;SDS011;12421;49.732;20.078;2023-04-24T16:03:50;5.60;;;4.10;;
24301;SDS011;12421;49.732;20.078;2023-04-24T16:13:53;3.70;;;2.80;;
24301;SDS011;12421;49.732;20.078;2023-04-24T16:23:57;4.70;;;3.00;;
24301;SDS011;12421;49.732;20.078;2023-04-24T16:34:00;10.30;;;6.70;;
24301;SDS011;12421;49.732;20.078;2023-04-24T16:44:03;8.00;;;5.70;;
24301;SDS011;12421;49.732;20.078;2023-04-24T16:54:07;7.00;;;5.20;;
24301;SDS011;12421;49.732;20.078;2023-04-24T17:04:11;7.50;;;4.80;;
24301;SDS011;12421;49.732;20.078;2023-04-24T17:14:16;7.30;;;5.40;;
24301;SDS011;12421;49.732;20.078;2023-04-24T17:24:19;6.40;;;5.20;;
24301;SDS011;12421;49.732;20.078;2023-04-24T17:34:23;9.30;;;6.80;;
24301;SDS011;12421;49.732;20.078;2023-04-24T17:44:26;8.90;;;6.50;;
24301;SDS011;12421;49.732;20.078;2023-04-24T17:54:29;14.20;;;6.80;;
24301;SDS011;12421;49.732;20.078;2023-04-24T18:04:32;14.00;;;9.70;;
24301;SDS011;12421;49.732;20.078;2023-04-24T18:14:36;14.70;;;8.70;;
24301;SDS011;12421;49.732;20.078;2023-04-24T18:24:39;12.80;;;8.60;;
24301;SDS011;12421;49.732;20.078;2023-04-24T18:34:42;13.50;;;8.10;;
24301;SDS011;12421;49.732;20.078;2023-04-24T18:44:46;11.90;;;8.10;;
24301;SDS011;12421;49.732;20.078;2023-04-24T18:54:49;16.00;;;11.80;;
24301;SDS011;12421;49.732;20.078;2023-04-24T19:04:53;17.60;;;12.70;;
24301;SDS011;12421;49.732;20.078;2023-04-24T19:14:56;18.30;;;12.70;;
24301;SDS011;12421;49.732;20.078;2023-04-24T19:24:59;17.70;;;12.40;;
24301;SDS011;12421;49.732;20.078;2023-04-24T19:35:04;20.00;;;13.40;;
24301;SDS011;12421;49.732;20.078;2023-04-24T19:45:09;20.00;;;14.00;;
24301;SDS011;12421;49.732;20.078;2023-04-24T19:55:14;24.20;;;15.80;;
24301;SDS011;12421;49.732;20.078;2023-04-24T20:05:17;21.70;;;15.90;;
24301;SDS011;12421;49.732;20.078;2023-04-24T20:15:23;20.50;;;13.80;;
24301;SDS011;12421;49.732;20.078;2023-04-24T20:25:27;19.20;;;13.70;;
24301;SDS011;12421;49.732;20.078;2023-04-24T20:35:30;25.90;;;17.10;;
24301;SDS011;12421;49.732;20.078;2023-04-24T20:45:34;22.00;;;15.60;;
24301;SDS011;12421;49.732;20.078;2023-04-24T20:55:37;24.10;;;16.90;;
24301;SDS011;12421;49.732;20.078;2023-04-24T21:05:40;27.50;;;17.40;;
24301;SDS011;12421;49.732;20.078;2023-04-24T21:15:43;25.20;;;18.10;;
24301;SDS011;12421;49.732;20.078;2023-04-24T21:25:47;26.70;;;18.20;;
24301;SDS011;12421;49.732;20.078;2023-04-24T21:35:50;30.60;;;20.90;;
24301;SDS011;12421;49.732;20.078;2023-04-24T21:45:54;27.90;;;21.60;;
24301;SDS011;12421;49.732;20.078;2023-04-24T21:55:58;27.70;;;20.60;;
24301;SDS011;12421;49.732;20.078;2023-04-24T22:06:03;28.10;;;20.50;;
24301;SDS011;12421;49.732;20.078;2023-04-24T22:16:06;35.60;;;26.60;;
24301;SDS011;12421;49.732;20.078;2023-04-24T22:26:09;32.20;;;23.50;;
24301;SDS011;12421;49.732;20.078;2023-04-24T22:36:13;29.10;;;22.20;;
24301;SDS011;12421;49.732;20.078;2023-04-24T22:46:19;29.90;;;22.90;;
24301;SDS011;12421;49.732;20.078;2023-04-24T22:56:23;34.10;;;23.60;;
24301;SDS011;12421;49.732;20.078;2023-04-24T23:06:29;27.40;;;21.20;;
24301;SDS011;12421;49.732;20.078;2023-04-24T23:16:39;28.80;;;22.60;;
24301;SDS011;12421;49.732;20.078;2023-04-24T23:26:51;28.80;;;21.90;;
24301;SDS011;12421;49.732;20.078;2023-04-24T23:36:56;25.70;;;20.10;;
24301;SDS011;12421;49.732;20.078;2023-04-24T23:47:00;29.30;;;22.30;;
24301;SDS011;12421;49.732;20.078;2023-04-24T23:57:03;24.40;;;19.90;;
